Terminal Aerodrome Forecast
Issued by NWS

Home | Current Version | Previous Version | Text Only | Print | Product List | Glossary On
Versions: 1 2 3 4 5 6 7 8 9 10 11 12
000
FTUS44 KTSA 261120
TAFMLC
TAF
KMLC 261120Z 2612/2712 VRB03KT P6SM SCT015 BKN250
     FM261600 16005KT P6SM SCT040 BKN250
     FM261900 16005KT P6SM VCTS BKN050CB
     FM270000 15003KT P6SM FEW040 BKN200=

USA.gov is the U.S. government's official web portal to all federal, state and local government web resources and services.